sensor_id;sensor_type;location;lat;lon;timestamp;temperature;humidity
35246;DHT22;21379;50.962;6.960;2023-05-13T00:01:47;13.20;99.90
35246;DHT22;21379;50.962;6.960;2023-05-13T00:04:14;13.20;99.90
35246;DHT22;21379;50.962;6.960;2023-05-13T00:06:41;13.10;99.90
35246;DHT22;21379;50.962;6.960;2023-05-13T00:09:08;13.10;99.90
35246;DHT22;21379;50.962;6.960;2023-05-13T00:11:36;13.10;99.90
35246;DHT22;21379;50.962;6.960;2023-05-13T00:14:03;13.10;99.90
35246;DHT22;21379;50.962;6.960;2023-05-13T00:16:34;13.10;99.90
35246;DHT22;21379;50.962;6.960;2023-05-13T00:19:01;13.10;99.90
35246;DHT22;21379;50.962;6.960;2023-05-13T00:21:27;13.10;99.90
35246;DHT22;21379;50.962;6.960;2023-05-13T00:23:54;13.00;99.90
35246;DHT22;21379;50.962;6.960;2023-05-13T00:26:21;12.90;99.90
35246;DHT22;21379;50.962;6.960;2023-05-13T00:28:50;12.90;99.90
35246;DHT22;21379;50.962;6.960;2023-05-13T00:31:18;12.80;99.90
35246;DHT22;21379;50.962;6.960;2023-05-13T00:33:45;12.80;99.90
35246;DHT22;21379;50.962;6.960;2023-05-13T00:36:12;12.80;99.90
35246;DHT22;21379;50.962;6.960;2023-05-13T00:38:39;12.70;99.90
35246;DHT22;21379;50.962;6.960;2023-05-13T00:41:08;12.80;99.90
35246;DHT22;21379;50.962;6.960;2023-05-13T00:43:35;12.80;99.90
35246;DHT22;21379;50.962;6.960;2023-05-13T00:46:03;12.70;99.90
35246;DHT22;21379;50.962;6.960;2023-05-13T00:48:31;12.60;99.90
35246;DHT22;21379;50.962;6.960;2023-05-13T00:50:58;12.50;99.90
35246;DHT22;21379;50.962;6.960;2023-05-13T00:53:25;12.50;99.90
35246;DHT22;21379;50.962;6.960;2023-05-13T00:55:52;12.40;99.90
35246;DHT22;21379;50.962;6.960;2023-05-13T00:58:19;12.40;99.90
35246;DHT22;21379;50.962;6.960;2023-05-13T01:00:53;12.40;99.90
35246;DHT22;21379;50.962;6.960;2023-05-13T01:03:27;12.30;99.90
35246;DHT22;21379;50.962;6.960;2023-05-13T01:05:57;12.30;99.90
35246;DHT22;21379;50.962;6.960;2023-05-13T01:08:33;12.20;99.90
35246;DHT22;21379;50.962;6.960;2023-05-13T01:11:05;12.10;99.90
35246;DHT22;21379;50.962;6.960;2023-05-13T01:13:36;12.10;99.90
35246;DHT22;21379;50.962;6.960;2023-05-13T01:16:12;12.10;99.90
35246;DHT22;21379;50.962;6.960;2023-05-13T01:18:45;12.20;99.90
35246;DHT22;21379;50.962;6.960;2023-05-13T01:21:13;12.20;99.90
35246;DHT22;21379;50.962;6.960;2023-05-13T01:23:42;12.10;99.90
35246;DHT22;21379;50.962;6.960;2023-05-13T01:26:09;12.10;99.90
35246;DHT22;21379;50.962;6.960;2023-05-13T01:28:36;12.10;99.90
35246;DHT22;21379;50.962;6.960;2023-05-13T01:31:04;12.00;99.90
35246;DHT22;21379;50.962;6.960;2023-05-13T01:33:31;11.90;99.90
35246;DHT22;21379;50.962;6.960;2023-05-13T01:35:59;11.90;99.90
35246;DHT22;21379;50.962;6.960;2023-05-13T01:38:27;11.80;99.90
35246;DHT22;21379;50.962;6.960;2023-05-13T01:40:58;11.90;99.90
35246;DHT22;21379;50.962;6.960;2023-05-13T01:43:28;11.90;99.90
35246;DHT22;21379;50.962;6.960;2023-05-13T01:45:55;11.80;99.90
35246;DHT22;21379;50.962;6.960;2023-05-13T01:48:25;11.80;99.90
35246;DHT22;21379;50.962;6.960;2023-05-13T01:50:52;11.70;99.90
35246;DHT22;21379;50.962;6.960;2023-05-13T01:53:19;11.70;99.90
35246;DHT22;21379;50.962;6.960;2023-05-13T01:55:48;11.60;99.90
35246;DHT22;21379;50.962;6.960;2023-05-13T01:58:16;11.60;99.90
35246;DHT22;21379;50.962;6.960;2023-05-13T02:00:43;11.50;99.90
35246;DHT22;21379;50.962;6.960;2023-05-13T02:03:10;11.50;99.90
35246;DHT22;21379;50.962;6.960;2023-05-13T02:05:37;11.50;99.90
35246;DHT22;21379;50.962;6.960;2023-05-13T02:08:06;11.50;99.90
35246;DHT22;21379;50.962;6.960;2023-05-13T02:10:33;11.50;99.90
35246;DHT22;21379;50.962;6.960;2023-05-13T02:13:00;11.50;99.90
35246;DHT22;21379;50.962;6.960;2023-05-13T02:15:28;11.50;99.90
35246;DHT22;21379;50.962;6.960;2023-05-13T02:17:55;11.50;99.90
35246;DHT22;21379;50.962;6.960;2023-05-13T02:20:22;11.40;99.90
35246;DHT22;21379;50.962;6.960;2023-05-13T02:22:49;11.50;99.90
35246;DHT22;21379;50.962;6.960;2023-05-13T02:25:16;11.50;99.90
35246;DHT22;21379;50.962;6.960;2023-05-13T02:27:43;11.50;99.90
35246;DHT22;21379;50.962;6.960;2023-05-13T02:30:11;11.50;99.90
35246;DHT22;21379;50.962;6.960;2023-05-13T02:32:40;11.50;99.90
35246;DHT22;21379;50.962;6.960;2023-05-13T02:35:09;11.60;99.90
35246;DHT22;21379;50.962;6.960;2023-05-13T02:37:36;11.60;99.90
35246;DHT22;21379;50.962;6.960;2023-05-13T02:40:04;11.60;99.90
35246;DHT22;21379;50.962;6.960;2023-05-13T02:42:31;11.50;99.90
35246;DHT22;21379;50.962;6.960;2023-05-13T02:44:58;11.60;99.90
35246;DHT22;21379;50.962;6.960;2023-05-13T02:47:27;11.60;99.90
35246;DHT22;21379;50.962;6.960;2023-05-13T02:49:58;11.60;99.90
35246;DHT22;21379;50.962;6.960;2023-05-13T02:52:25;11.60;99.90
35246;DHT22;21379;50.962;6.960;2023-05-13T02:54:52;11.60;99.90
35246;DHT22;21379;50.962;6.960;2023-05-13T02:57:21;11.50;99.90
35246;DHT22;21379;50.962;6.960;2023-05-13T02:59:48;11.50;99.90
35246;DHT22;21379;50.962;6.960;2023-05-13T03:02:15;11.50;99.90
35246;DHT22;21379;50.962;6.960;2023-05-13T03:04:42;11.40;99.90
35246;DHT22;21379;50.962;6.960;2023-05-13T03:07:10;11.40;99.90
35246;DHT22;21379;50.962;6.960;2023-05-13T03:09:37;11.40;99.90
35246;DHT22;21379;50.962;6.960;2023-05-13T03:12:07;11.40;99.90
35246;DHT22;21379;50.962;6.960;2023-05-13T03:14:34;11.40;99.90
35246;DHT22;21379;50.962;6.960;2023-05-13T03:17:01;11.50;99.90
35246;DHT22;21379;50.962;6.960;2023-05-13T03:19:28;11.50;99.90
35246;DHT22;21379;50.962;6.960;2023-05-13T03:21:56;11.40;99.90
35246;DHT22;21379;50.962;6.960;2023-05-13T03:24:25;11.40;99.90
35246;DHT22;21379;50.962;6.960;2023-05-13T03:26:52;11.30;99.90
35246;DHT22;21379;50.962;6.960;2023-05-13T03:29:19;11.30;99.90
35246;DHT22;21379;50.962;6.960;2023-05-13T03:31:46;11.20;99.90
35246;DHT22;21379;50.962;6.960;2023-05-13T03:34:13;11.20;99.90
35246;DHT22;21379;50.962;6.960;2023-05-13T03:36:40;11.20;99.90
35246;DHT22;21379;50.962;6.960;2023-05-13T03:39:07;11.20;99.90
35246;DHT22;21379;50.962;6.960;2023-05-13T03:41:37;11.10;99.90
35246;DHT22;21379;50.962;6.960;2023-05-13T03:44:04;11.10;99.90
35246;DHT22;21379;50.962;6.960;2023-05-13T03:46:31;11.10;99.90
35246;DHT22;21379;50.962;6.960;2023-05-13T03:48:59;11.10;99.90
35246;DHT22;21379;50.962;6.960;2023-05-13T03:51:27;11.10;99.90
35246;DHT22;21379;50.962;6.960;2023-05-13T03:53:54;11.10;99.90
35246;DHT22;21379;50.962;6.960;2023-05-13T03:56:22;11.10;99.90
35246;DHT22;21379;50.962;6.960;2023-05-13T03:58:50;11.00;99.90
35246;DHT22;21379;50.962;6.960;2023-05-13T04:01:17;11.00;99.90
35246;DHT22;21379;50.962;6.960;2023-05-13T04:03:44;11.00;99.90
35246;DHT22;21379;50.962;6.960;2023-05-13T04:06:11;11.00;99.90
35246;DHT22;21379;50.962;6.960;2023-05-13T04:08:39;11.00;99.90
35246;DHT22;21379;50.962;6.960;2023-05-13T04:11:06;10.90;99.90
35246;DHT22;21379;50.962;6.960;2023-05-13T04:13:33;10.90;99.90
35246;DHT22;21379;50.962;6.960;2023-05-13T04:16:02;10.90;99.90
35246;DHT22;21379;50.962;6.960;2023-05-13T04:18:29;10.90;99.90
35246;DHT22;21379;50.962;6.960;2023-05-13T04:20:56;10.90;99.90
35246;DHT22;21379;50.962;6.960;2023-05-13T04:23:23;10.90;99.90
35246;DHT22;21379;50.962;6.960;2023-05-13T04:25:51;10.90;99.90
35246;DHT22;21379;50.962;6.960;2023-05-13T04:28:18;10.90;99.90
35246;DHT22;21379;50.962;6.960;2023-05-13T04:30:46;11.00;99.90
35246;DHT22;21379;50.962;6.960;2023-05-13T04:33:15;11.10;99.90
35246;DHT22;21379;50.962;6.960;2023-05-13T04:35:44;11.10;99.90
35246;DHT22;21379;50.962;6.960;2023-05-13T04:38:12;11.20;99.90
35246;DHT22;21379;50.962;6.960;2023-05-13T04:40:39;11.20;99.90
35246;DHT22;21379;50.962;6.960;2023-05-13T04:43:09;11.30;99.90
35246;DHT22;21379;50.962;6.960;2023-05-13T04:45:46;11.40;99.90
35246;DHT22;21379;50.962;6.960;2023-05-13T04:48:14;11.50;99.90
35246;DHT22;21379;50.962;6.960;2023-05-13T04:50:44;11.60;99.90
35246;DHT22;21379;50.962;6.960;2023-05-13T04:53:12;11.60;99.90
35246;DHT22;21379;50.962;6.960;2023-05-13T04:55:39;11.60;99.90
35246;DHT22;21379;50.962;6.960;2023-05-13T04:58:06;11.60;99.90
35246;DHT22;21379;50.962;6.960;2023-05-13T05:00:34;11.70;99.90
35246;DHT22;21379;50.962;6.960;2023-05-13T05:03:01;11.80;99.90
35246;DHT22;21379;50.962;6.960;2023-05-13T05:05:29;11.80;99.90
35246;DHT22;21379;50.962;6.960;2023-05-13T05:07:56;11.80;99.90
35246;DHT22;21379;50.962;6.960;2023-05-13T05:10:24;11.80;99.90
35246;DHT22;21379;50.962;6.960;2023-05-13T05:12:55;11.90;99.90
35246;DHT22;21379;50.962;6.960;2023-05-13T05:15:23;11.90;99.90
35246;DHT22;21379;50.962;6.960;2023-05-13T05:17:53;11.90;99.90
35246;DHT22;21379;50.962;6.960;2023-05-13T05:20:21;11.90;99.90
35246;DHT22;21379;50.962;6.960;2023-05-13T05:22:51;12.00;99.90
35246;DHT22;21379;50.962;6.960;2023-05-13T05:25:21;12.00;99.90
35246;DHT22;21379;50.962;6.960;2023-05-13T05:27:49;12.10;99.90
35246;DHT22;21379;50.962;6.960;2023-05-13T05:30:16;12.20;99.90
35246;DHT22;21379;50.962;6.960;2023-05-13T05:45:08;13.10;99.90
35246;DHT22;21379;50.962;6.960;2023-05-13T05:47:36;13.10;99.90
35246;DHT22;21379;50.962;6.960;2023-05-13T05:57:27;13.60;99.90
35246;DHT22;21379;50.962;6.960;2023-05-13T05:59:54;13.60;99.90
35246;DHT22;21379;50.962;6.960;2023-05-13T06:02:21;13.70;99.90
35246;DHT22;21379;50.962;6.960;2023-05-13T06:04:50;13.80;99.90
35246;DHT22;21379;50.962;6.960;2023-05-13T06:07:17;13.80;99.90
35246;DHT22;21379;50.962;6.960;2023-05-13T06:09:44;13.80;99.90
35246;DHT22;21379;50.962;6.960;2023-05-13T06:12:11;13.80;99.90
35246;DHT22;21379;50.962;6.960;2023-05-13T06:14:40;14.00;99.90
35246;DHT22;21379;50.962;6.960;2023-05-13T06:17:08;14.10;99.90
35246;DHT22;21379;50.962;6.960;2023-05-13T06:19:35;14.30;99.90
35246;DHT22;21379;50.962;6.960;2023-05-13T06:22:02;14.20;99.90
35246;DHT22;21379;50.962;6.960;2023-05-13T06:24:29;14.40;99.90
35246;DHT22;21379;50.962;6.960;2023-05-13T06:26:56;14.60;99.90
35246;DHT22;21379;50.962;6.960;2023-05-13T06:29:23;14.70;99.90
35246;DHT22;21379;50.962;6.960;2023-05-13T06:31:53;15.00;99.90
35246;DHT22;21379;50.962;6.960;2023-05-13T06:34:20;15.30;99.90
35246;DHT22;21379;50.962;6.960;2023-05-13T06:36:47;15.30;99.90
35246;DHT22;21379;50.962;6.960;2023-05-13T06:39:13;15.60;99.90
35246;DHT22;21379;50.962;6.960;2023-05-13T06:41:41;15.60;99.90
35246;DHT22;21379;50.962;6.960;2023-05-13T06:44:12;15.80;99.90
35246;DHT22;21379;50.962;6.960;2023-05-13T06:46:44;15.70;99.90
35246;DHT22;21379;50.962;6.960;2023-05-13T06:49:12;16.00;99.90
35246;DHT22;21379;50.962;6.960;2023-05-13T06:51:39;15.90;99.90
35246;DHT22;21379;50.962;6.960;2023-05-13T06:54:06;16.10;99.90
35246;DHT22;21379;50.962;6.960;2023-05-13T06:56:32;16.40;99.90
35246;DHT22;21379;50.962;6.960;2023-05-13T06:58:59;16.70;99.90
35246;DHT22;21379;50.962;6.960;2023-05-13T07:01:26;16.40;99.90
35246;DHT22;21379;50.962;6.960;2023-05-13T07:03:53;16.70;99.90
35246;DHT22;21379;50.962;6.960;2023-05-13T07:06:21;16.30;99.90
35246;DHT22;21379;50.962;6.960;2023-05-13T07:08:48;16.30;99.90
35246;DHT22;21379;50.962;6.960;2023-05-13T07:11:15;16.60;99.90
35246;DHT22;21379;50.962;6.960;2023-05-13T07:13:42;16.60;99.90
35246;DHT22;21379;50.962;6.960;2023-05-13T07:16:09;17.00;99.90
35246;DHT22;21379;50.962;6.960;2023-05-13T07:18:36;16.70;99.90
35246;DHT22;21379;50.962;6.960;2023-05-13T07:21:03;16.70;99.90
35246;DHT22;21379;50.962;6.960;2023-05-13T07:23:32;17.10;99.90
35246;DHT22;21379;50.962;6.960;2023-05-13T07:26:00;16.80;99.90
35246;DHT22;21379;50.962;6.960;2023-05-13T07:28:27;16.80;99.90
35246;DHT22;21379;50.962;6.960;2023-05-13T07:30:54;16.90;99.90
35246;DHT22;21379;50.962;6.960;2023-05-13T07:33:21;17.30;99.90
35246;DHT22;21379;50.962;6.960;2023-05-13T07:35:48;17.10;99.90
35246;DHT22;21379;50.962;6.960;2023-05-13T07:38:15;17.70;99.90
35246;DHT22;21379;50.962;6.960;2023-05-13T07:40:43;17.90;99.90
35246;DHT22;21379;50.962;6.960;2023-05-13T07:43:10;18.00;99.90
35246;DHT22;21379;50.962;6.960;2023-05-13T07:45:38;18.20;99.90
35246;DHT22;21379;50.962;6.960;2023-05-13T07:48:05;18.50;99.90
35246;DHT22;21379;50.962;6.960;2023-05-13T07:50:32;18.20;99.90
35246;DHT22;21379;50.962;6.960;2023-05-13T07:52:59;17.90;99.90
35246;DHT22;21379;50.962;6.960;2023-05-13T07:55:26;17.90;99.90
35246;DHT22;21379;50.962;6.960;2023-05-13T07:57:54;17.80;99.90
35246;DHT22;21379;50.962;6.960;2023-05-13T08:00:21;17.90;99.90
35246;DHT22;21379;50.962;6.960;2023-05-13T08:02:48;17.80;99.90
35246;DHT22;21379;50.962;6.960;2023-05-13T08:05:15;17.50;99.90
35246;DHT22;21379;50.962;6.960;2023-05-13T08:07:41;17.20;99.90
35246;DHT22;21379;50.962;6.960;2023-05-13T08:10:09;17.30;99.90
35246;DHT22;21379;50.962;6.960;2023-05-13T08:12:36;17.50;99.90
35246;DHT22;21379;50.962;6.960;2023-05-13T08:15:07;17.50;99.90
35246;DHT22;21379;50.962;6.960;2023-05-13T08:17:36;17.80;99.90
35246;DHT22;21379;50.962;6.960;2023-05-13T08:20:04;18.60;99.90
35246;DHT22;21379;50.962;6.960;2023-05-13T08:22:31;19.20;99.90
35246;DHT22;21379;50.962;6.960;2023-05-13T08:24:57;20.30;99.90
35246;DHT22;21379;50.962;6.960;2023-05-13T08:27:25;21.20;99.90
35246;DHT22;21379;50.962;6.960;2023-05-13T08:29:52;21.70;99.90
35246;DHT22;21379;50.962;6.960;2023-05-13T08:32:20;22.20;99.90
35246;DHT22;21379;50.962;6.960;2023-05-13T08:34:47;22.40;99.90
35246;DHT22;21379;50.962;6.960;2023-05-13T08:37:14;22.10;99.90
35246;DHT22;21379;50.962;6.960;2023-05-13T08:39:41;22.10;99.90
35246;DHT22;21379;50.962;6.960;2023-05-13T08:42:09;22.60;99.90
35246;DHT22;21379;50.962;6.960;2023-05-13T08:44:38;23.40;99.90
35246;DHT22;21379;50.962;6.960;2023-05-13T08:47:12;24.20;99.90
35246;DHT22;21379;50.962;6.960;2023-05-13T08:49:44;25.00;99.90
35246;DHT22;21379;50.962;6.960;2023-05-13T08:52:14;25.20;99.90
35246;DHT22;21379;50.962;6.960;2023-05-13T08:54:42;24.60;99.90
35246;DHT22;21379;50.962;6.960;2023-05-13T08:57:12;25.10;99.90
35246;DHT22;21379;50.962;6.960;2023-05-13T08:59:39;25.50;99.30
35246;DHT22;21379;50.962;6.960;2023-05-13T09:02:07;24.80;99.90
35246;DHT22;21379;50.962;6.960;2023-05-13T09:04:35;24.40;99.90
35246;DHT22;21379;50.962;6.960;2023-05-13T09:07:10;25.40;99.40
35246;DHT22;21379;50.962;6.960;2023-05-13T09:09:37;26.00;98.80
35246;DHT22;21379;50.962;6.960;2023-05-13T09:12:10;26.10;98.70
35246;DHT22;21379;50.962;6.960;2023-05-13T09:14:46;25.80;97.60
35246;DHT22;21379;50.962;6.960;2023-05-13T09:17:14;25.60;99.40
35246;DHT22;21379;50.962;6.960;2023-05-13T09:19:42;26.10;99.40
35246;DHT22;21379;50.962;6.960;2023-05-13T09:22:17;27.10;97.30
35246;DHT22;21379;50.962;6.960;2023-05-13T09:24:52;27.90;95.80
35246;DHT22;21379;50.962;6.960;2023-05-13T09:27:35;27.80;94.80
35246;DHT22;21379;50.962;6.960;2023-05-13T09:30:06;27.00;93.90
35246;DHT22;21379;50.962;6.960;2023-05-13T09:32:36;26.40;94.60
35246;DHT22;21379;50.962;6.960;2023-05-13T09:35:11;25.50;94.50
35246;DHT22;21379;50.962;6.960;2023-05-13T09:37:43;26.60;95.10
35246;DHT22;21379;50.962;6.960;2023-05-13T09:40:11;27.80;93.30
35246;DHT22;21379;50.962;6.960;2023-05-13T09:42:42;27.40;94.50
35246;DHT22;21379;50.962;6.960;2023-05-13T09:45:10;26.10;95.20
35246;DHT22;21379;50.962;6.960;2023-05-13T09:47:38;26.90;94.40
35246;DHT22;21379;50.962;6.960;2023-05-13T09:50:06;27.40;94.70
35246;DHT22;21379;50.962;6.960;2023-05-13T09:52:35;26.90;93.70
35246;DHT22;21379;50.962;6.960;2023-05-13T09:55:07;27.50;94.60
35246;DHT22;21379;50.962;6.960;2023-05-13T09:57:34;26.90;94.70
35246;DHT22;21379;50.962;6.960;2023-05-13T10:00:04;27.40;95.20
35246;DHT22;21379;50.962;6.960;2023-05-13T10:02:37;27.60;94.60
35246;DHT22;21379;50.962;6.960;2023-05-13T10:05:08;27.60;94.70
35246;DHT22;21379;50.962;6.960;2023-05-13T10:07:36;27.70;95.10
35246;DHT22;21379;50.962;6.960;2023-05-13T10:10:06;27.60;94.90
35246;DHT22;21379;50.962;6.960;2023-05-13T10:12:35;27.20;95.20
35246;DHT22;21379;50.962;6.960;2023-05-13T10:15:05;26.80;95.80
35246;DHT22;21379;50.962;6.960;2023-05-13T10:17:33;26.70;95.80
35246;DHT22;21379;50.962;6.960;2023-05-13T10:20:01;27.10;94.40
35246;DHT22;21379;50.962;6.960;2023-05-13T10:22:31;27.90;94.60
35246;DHT22;21379;50.962;6.960;2023-05-13T10:25:01;28.10;93.30
35246;DHT22;21379;50.962;6.960;2023-05-13T10:27:32;27.80;93.50
35246;DHT22;21379;50.962;6.960;2023-05-13T10:30:00;27.10;94.20
35246;DHT22;21379;50.962;6.960;2023-05-13T10:32:30;26.70;93.40
35246;DHT22;21379;50.962;6.960;2023-05-13T10:35:01;26.30;94.40
35246;DHT22;21379;50.962;6.960;2023-05-13T10:40:45;23.70;96.20
35246;DHT22;21379;50.962;6.960;2023-05-13T10:43:18;22.80;98.30
35246;DHT22;21379;50.962;6.960;2023-05-13T10:45:47;22.20;98.20
35246;DHT22;21379;50.962;6.960;2023-05-13T10:48:15;21.70;99.80
35246;DHT22;21379;50.962;6.960;2023-05-13T10:50:50;21.50;99.90
35246;DHT22;21379;50.962;6.960;2023-05-13T10:53:21;21.30;99.90
35246;DHT22;21379;50.962;6.960;2023-05-13T10:55:52;21.30;99.90
35246;DHT22;21379;50.962;6.960;2023-05-13T10:58:27;21.20;99.90
35246;DHT22;21379;50.962;6.960;2023-05-13T11:01:11;21.20;99.90
35246;DHT22;21379;50.962;6.960;2023-05-13T11:03:39;21.10;99.90
35246;DHT22;21379;50.962;6.960;2023-05-13T11:06:16;21.20;99.90
35246;DHT22;21379;50.962;6.960;2023-05-13T11:08:44;21.50;99.90
35246;DHT22;21379;50.962;6.960;2023-05-13T11:11:23;22.50;99.90
35246;DHT22;21379;50.962;6.960;2023-05-13T11:13:53;23.80;99.90
35246;DHT22;21379;50.962;6.960;2023-05-13T11:16:20;24.30;99.80
35246;DHT22;21379;50.962;6.960;2023-05-13T11:18:47;23.60;98.70
35246;DHT22;21379;50.962;6.960;2023-05-13T11:21:14;22.80;99.90
35246;DHT22;21379;50.962;6.960;2023-05-13T11:23:50;22.10;99.90
35246;DHT22;21379;50.962;6.960;2023-05-13T11:26:18;21.70;99.90
35246;DHT22;21379;50.962;6.960;2023-05-13T11:28:54;21.10;99.90
35246;DHT22;21379;50.962;6.960;2023-05-13T11:31:22;20.70;99.90
35246;DHT22;21379;50.962;6.960;2023-05-13T11:34:05;19.90;98.30
35246;DHT22;21379;50.962;6.960;2023-05-13T11:36:35;19.30;99.90
35246;DHT22;21379;50.962;6.960;2023-05-13T11:39:10;18.70;99.90
35246;DHT22;21379;50.962;6.960;2023-05-13T11:41:43;18.10;99.90
35246;DHT22;21379;50.962;6.960;2023-05-13T11:44:14;17.80;99.90
35246;DHT22;21379;50.962;6.960;2023-05-13T11:46:54;17.70;99.90
35246;DHT22;21379;50.962;6.960;2023-05-13T11:49:36;17.60;99.90
35246;DHT22;21379;50.962;6.960;2023-05-13T11:52:05;17.60;99.90
35246;DHT22;21379;50.962;6.960;2023-05-13T11:54:38;17.50;99.90
35246;DHT22;21379;50.962;6.960;2023-05-13T11:57:13;17.40;99.90
35246;DHT22;21379;50.962;6.960;2023-05-13T11:59:48;17.30;99.90
35246;DHT22;21379;50.962;6.960;2023-05-13T12:02:17;17.30;99.90
35246;DHT22;21379;50.962;6.960;2023-05-13T12:04:45;17.40;99.90
35246;DHT22;21379;50.962;6.960;2023-05-13T12:07:12;17.50;99.90
35246;DHT22;21379;50.962;6.960;2023-05-13T12:09:39;17.40;99.90
35246;DHT22;21379;50.962;6.960;2023-05-13T12:12:06;17.40;99.90
35246;DHT22;21379;50.962;6.960;2023-05-13T12:14:33;17.60;99.90
35246;DHT22;21379;50.962;6.960;2023-05-13T12:17:01;17.80;99.90
35246;DHT22;21379;50.962;6.960;2023-05-13T12:19:28;18.20;99.90
35246;DHT22;21379;50.962;6.960;2023-05-13T12:21:55;18.40;99.90
35246;DHT22;21379;50.962;6.960;2023-05-13T12:24:24;18.90;99.90
35246;DHT22;21379;50.962;6.960;2023-05-13T12:26:51;19.30;99.90
35246;DHT22;21379;50.962;6.960;2023-05-13T12:29:19;19.50;99.90
35246;DHT22;21379;50.962;6.960;2023-05-13T12:32:02;19.60;99.90
35246;DHT22;21379;50.962;6.960;2023-05-13T12:34:30;19.80;99.90
35246;DHT22;21379;50.962;6.960;2023-05-13T12:37:08;19.70;99.70
35246;DHT22;21379;50.962;6.960;2023-05-13T12:39:36;19.80;99.70
35246;DHT22;21379;50.962;6.960;2023-05-13T12:42:03;19.70;99.90
35246;DHT22;21379;50.962;6.960;2023-05-13T12:44:30;19.70;99.90
35246;DHT22;21379;50.962;6.960;2023-05-13T12:46:58;19.80;98.20
35246;DHT22;21379;50.962;6.960;2023-05-13T12:49:27;19.80;97.80
35246;DHT22;21379;50.962;6.960;2023-05-13T12:51:54;19.70;95.80
35246;DHT22;21379;50.962;6.960;2023-05-13T12:54:21;19.80;95.20
35246;DHT22;21379;50.962;6.960;2023-05-13T12:56:48;19.90;94.20
35246;DHT22;21379;50.962;6.960;2023-05-13T12:59:15;20.40;95.10
35246;DHT22;21379;50.962;6.960;2023-05-13T13:01:43;21.00;94.50
35246;DHT22;21379;50.962;6.960;2023-05-13T13:04:12;21.50;95.30
35246;DHT22;21379;50.962;6.960;2023-05-13T13:06:42;22.10;95.60
35246;DHT22;21379;50.962;6.960;2023-05-13T13:09:09;22.30;93.80
35246;DHT22;21379;50.962;6.960;2023-05-13T13:11:36;22.60;92.40
35246;DHT22;21379;50.962;6.960;2023-05-13T13:14:03;22.60;94.60
35246;DHT22;21379;50.962;6.960;2023-05-13T13:16:30;22.40;93.30
35246;DHT22;21379;50.962;6.960;2023-05-13T13:18:57;22.30;93.80
35246;DHT22;21379;50.962;6.960;2023-05-13T13:21:24;22.20;94.80
35246;DHT22;21379;50.962;6.960;2023-05-13T13:23:53;22.20;93.10
35246;DHT22;21379;50.962;6.960;2023-05-13T13:26:20;21.90;92.90
35246;DHT22;21379;50.962;6.960;2023-05-13T13:28:48;21.60;93.00
35246;DHT22;21379;50.962;6.960;2023-05-13T13:31:15;22.60;91.70
35246;DHT22;21379;50.962;6.960;2023-05-13T13:33:42;23.40;90.70
35246;DHT22;21379;50.962;6.960;2023-05-13T13:36:09;24.20;89.20
35246;DHT22;21379;50.962;6.960;2023-05-13T13:38:37;24.80;88.20
35246;DHT22;21379;50.962;6.960;2023-05-13T13:41:06;25.40;85.40
35246;DHT22;21379;50.962;6.960;2023-05-13T13:43:33;26.20;90.20
35246;DHT22;21379;50.962;6.960;2023-05-13T13:46:00;27.00;84.90
35246;DHT22;21379;50.962;6.960;2023-05-13T13:48:26;27.30;81.20
35246;DHT22;21379;50.962;6.960;2023-05-13T13:50:53;27.70;80.80
35246;DHT22;21379;50.962;6.960;2023-05-13T13:53:21;27.70;79.10
35246;DHT22;21379;50.962;6.960;2023-05-13T13:55:47;27.40;78.30
35246;DHT22;21379;50.962;6.960;2023-05-13T13:58:16;27.30;82.50
35246;DHT22;21379;50.962;6.960;2023-05-13T14:00:43;28.50;83.80
35246;DHT22;21379;50.962;6.960;2023-05-13T14:03:09;28.30;79.20
35246;DHT22;21379;50.962;6.960;2023-05-13T14:05:36;27.50;79.50
35246;DHT22;21379;50.962;6.960;2023-05-13T14:08:04;27.20;78.40
35246;DHT22;21379;50.962;6.960;2023-05-13T14:10:32;28.00;80.80
35246;DHT22;21379;50.962;6.960;2023-05-13T14:12:58;27.60;84.10
35246;DHT22;21379;50.962;6.960;2023-05-13T14:15:27;27.50;85.90
35246;DHT22;21379;50.962;6.960;2023-05-13T14:17:55;27.20;87.40
35246;DHT22;21379;50.962;6.960;2023-05-13T14:20:22;27.50;87.10
35246;DHT22;21379;50.962;6.960;2023-05-13T14:22:50;27.90;88.40
35246;DHT22;21379;50.962;6.960;2023-05-13T14:25:17;27.80;88.30
35246;DHT22;21379;50.962;6.960;2023-05-13T14:27:43;26.20;91.60
35246;DHT22;21379;50.962;6.960;2023-05-13T14:30:11;23.70;93.80
35246;DHT22;21379;50.962;6.960;2023-05-13T14:32:40;21.70;94.60
35246;DHT22;21379;50.962;6.960;2023-05-13T14:35:09;20.60;95.70
35246;DHT22;21379;50.962;6.960;2023-05-13T14:37:36;20.30;96.90
35246;DHT22;21379;50.962;6.960;2023-05-13T14:40:04;20.30;97.50
35246;DHT22;21379;50.962;6.960;2023-05-13T14:42:31;19.90;97.40
35246;DHT22;21379;50.962;6.960;2023-05-13T14:44:58;19.70;98.30
35246;DHT22;21379;50.962;6.960;2023-05-13T14:47:25;19.70;98.40
35246;DHT22;21379;50.962;6.960;2023-05-13T14:49:53;19.40;98.70
35246;DHT22;21379;50.962;6.960;2023-05-13T14:52:20;19.10;98.60
35246;DHT22;21379;50.962;6.960;2023-05-13T14:54:47;19.70;99.50
35246;DHT22;21379;50.962;6.960;2023-05-13T14:57:14;20.10;99.50
35246;DHT22;21379;50.962;6.960;2023-05-13T14:59:41;20.50;98.40
35246;DHT22;21379;50.962;6.960;2023-05-13T15:02:08;20.70;97.50
35246;DHT22;21379;50.962;6.960;2023-05-13T15:04:35;20.80;97.40
35246;DHT22;21379;50.962;6.960;2023-05-13T15:07:03;20.90;97.00
35246;DHT22;21379;50.962;6.960;2023-05-13T15:09:30;20.90;96.60
35246;DHT22;21379;50.962;6.960;2023-05-13T15:11:57;21.10;97.60
35246;DHT22;21379;50.962;6.960;2023-05-13T15:14:24;21.10;96.70
35246;DHT22;21379;50.962;6.960;2023-05-13T15:16:51;21.20;96.90
35246;DHT22;21379;50.962;6.960;2023-05-13T15:19:18;21.40;97.70
35246;DHT22;21379;50.962;6.960;2023-05-13T15:21:45;21.50;97.70
35246;DHT22;21379;50.962;6.960;2023-05-13T15:24:13;21.50;96.80
35246;DHT22;21379;50.962;6.960;2023-05-13T15:26:40;21.60;96.60
35246;DHT22;21379;50.962;6.960;2023-05-13T15:29:07;21.40;95.50
35246;DHT22;21379;50.962;6.960;2023-05-13T15:31:34;21.40;97.20
35246;DHT22;21379;50.962;6.960;2023-05-13T15:34:01;21.30;96.00
35246;DHT22;21379;50.962;6.960;2023-05-13T15:36:28;21.40;96.50
35246;DHT22;21379;50.962;6.960;2023-05-13T15:38:55;21.50;96.30
35246;DHT22;21379;50.962;6.960;2023-05-13T15:41:24;21.50;96.60
35246;DHT22;21379;50.962;6.960;2023-05-13T15:43:50;21.70;95.60
35246;DHT22;21379;50.962;6.960;2023-05-13T15:46:17;21.80;96.10
35246;DHT22;21379;50.962;6.960;2023-05-13T15:48:46;22.00;95.70
35246;DHT22;21379;50.962;6.960;2023-05-13T15:51:13;21.90;93.80
35246;DHT22;21379;50.962;6.960;2023-05-13T15:53:39;21.80;94.50
35246;DHT22;21379;50.962;6.960;2023-05-13T15:56:06;21.70;94.30
35246;DHT22;21379;50.962;6.960;2023-05-13T15:58:35;21.40;94.20
35246;DHT22;21379;50.962;6.960;2023-05-13T16:01:02;20.80;93.50